sensor_id;sensor_type;location;lat;lon;timestamp;P1;durP1;ratioP1;P2;durP2;ratioP2
27728;SDS011;15126;42.186;24.340;2024-02-04T00:00:26;11.93;;;5.03;;
27728;SDS011;15126;42.186;24.340;2024-02-04T00:02:51;9.18;;;4.57;;
27728;SDS011;15126;42.186;24.340;2024-02-04T00:05:17;10.23;;;4.72;;
27728;SDS011;15126;42.186;24.340;2024-02-04T00:07:43;8.70;;;3.92;;
27728;SDS011;15126;42.186;24.340;2024-02-04T00:10:09;11.90;;;4.35;;
27728;SDS011;15126;42.186;24.340;2024-02-04T00:12:35;11.50;;;4.45;;
27728;SDS011;15126;42.186;24.340;2024-02-04T00:15:00;7.85;;;3.60;;
27728;SDS011;15126;42.186;24.340;2024-02-04T00:17:25;6.95;;;3.70;;
27728;SDS011;15126;42.186;24.340;2024-02-04T00:19:55;9.85;;;4.53;;
27728;SDS011;15126;42.186;24.340;2024-02-04T00:22:21;15.75;;;5.35;;
27728;SDS011;15126;42.186;24.340;2024-02-04T00:24:47;14.18;;;5.55;;
27728;SDS011;15126;42.186;24.340;2024-02-04T00:27:12;13.85;;;5.85;;
27728;SDS011;15126;42.186;24.340;2024-02-04T00:29:38;12.73;;;4.82;;
27728;SDS011;15126;42.186;24.340;2024-02-04T00:32:03;12.85;;;5.38;;
27728;SDS011;15126;42.186;24.340;2024-02-04T00:34:29;11.05;;;4.90;;
27728;SDS011;15126;42.186;24.340;2024-02-04T00:36:54;7.43;;;3.67;;
27728;SDS011;15126;42.186;24.340;2024-02-04T00:39:20;10.00;;;3.40;;
27728;SDS011;15126;42.186;24.340;2024-02-04T00:41:45;6.45;;;2.90;;
27728;SDS011;15126;42.186;24.340;2024-02-04T00:44:11;5.72;;;2.47;;
27728;SDS011;15126;42.186;24.340;2024-02-04T00:46:36;4.93;;;2.38;;
27728;SDS011;15126;42.186;24.340;2024-02-04T00:49:01;5.25;;;2.10;;
27728;SDS011;15126;42.186;24.340;2024-02-04T00:51:30;4.20;;;2.00;;
27728;SDS011;15126;42.186;24.340;2024-02-04T00:53:55;4.63;;;2.33;;
27728;SDS011;15126;42.186;24.340;2024-02-04T00:56:21;5.78;;;2.80;;
27728;SDS011;15126;42.186;24.340;2024-02-04T00:58:46;5.68;;;2.47;;
27728;SDS011;15126;42.186;24.340;2024-02-04T01:01:11;3.60;;;1.88;;
27728;SDS011;15126;42.186;24.340;2024-02-04T01:03:37;5.55;;;2.25;;
27728;SDS011;15126;42.186;24.340;2024-02-04T01:06:03;6.47;;;2.40;;
27728;SDS011;15126;42.186;24.340;2024-02-04T01:08:28;3.85;;;2.22;;
27728;SDS011;15126;42.186;24.340;2024-02-04T01:10:54;7.57;;;2.17;;
27728;SDS011;15126;42.186;24.340;2024-02-04T01:13:19;3.30;;;1.92;;
27728;SDS011;15126;42.186;24.340;2024-02-04T01:15:45;4.03;;;2.40;;
27728;SDS011;15126;42.186;24.340;2024-02-04T01:18:10;6.95;;;3.13;;
27728;SDS011;15126;42.186;24.340;2024-02-04T01:20:36;3.80;;;2.50;;
27728;SDS011;15126;42.186;24.340;2024-02-04T01:23:01;5.07;;;2.83;;
27728;SDS011;15126;42.186;24.340;2024-02-04T01:25:27;7.55;;;2.45;;
27728;SDS011;15126;42.186;24.340;2024-02-04T01:27:52;5.60;;;2.53;;
27728;SDS011;15126;42.186;24.340;2024-02-04T01:30:18;5.93;;;3.22;;
27728;SDS011;15126;42.186;24.340;2024-02-04T01:32:43;5.15;;;2.72;;
27728;SDS011;15126;42.186;24.340;2024-02-04T01:35:09;6.63;;;2.95;;
27728;SDS011;15126;42.186;24.340;2024-02-04T01:37:34;4.95;;;2.10;;
27728;SDS011;15126;42.186;24.340;2024-02-04T01:39:59;6.70;;;2.78;;
27728;SDS011;15126;42.186;24.340;2024-02-04T01:42:25;5.13;;;2.90;;
27728;SDS011;15126;42.186;24.340;2024-02-04T01:44:50;3.50;;;1.85;;
27728;SDS011;15126;42.186;24.340;2024-02-04T01:47:16;4.78;;;2.30;;
27728;SDS011;15126;42.186;24.340;2024-02-04T01:49:42;6.50;;;2.45;;
27728;SDS011;15126;42.186;24.340;2024-02-04T01:52:09;5.43;;;2.83;;
27728;SDS011;15126;42.186;24.340;2024-02-04T01:54:37;5.75;;;2.85;;
27728;SDS011;15126;42.186;24.340;2024-02-04T01:57:03;4.28;;;2.05;;
27728;SDS011;15126;42.186;24.340;2024-02-04T01:59:29;6.07;;;2.70;;
27728;SDS011;15126;42.186;24.340;2024-02-04T02:04:27;4.90;;;2.50;;
27728;SDS011;15126;42.186;24.340;2024-02-04T02:06:53;6.03;;;2.67;;
27728;SDS011;15126;42.186;24.340;2024-02-04T02:11:51;3.90;;;1.90;;
27728;SDS011;15126;42.186;24.340;2024-02-04T02:14:26;5.43;;;2.88;;
27728;SDS011;15126;42.186;24.340;2024-02-04T02:16:56;4.18;;;2.65;;
27728;SDS011;15126;42.186;24.340;2024-02-04T02:20:06;2.83;;;2.08;;
27728;SDS011;15126;42.186;24.340;2024-02-04T02:22:20;4.28;;;1.73;;
27728;SDS011;15126;42.186;24.340;2024-02-04T02:24:51;6.68;;;2.38;;
27728;SDS011;15126;42.186;24.340;2024-02-04T02:27:18;4.50;;;2.22;;
27728;SDS011;15126;42.186;24.340;2024-02-04T02:29:44;5.15;;;2.50;;
27728;SDS011;15126;42.186;24.340;2024-02-04T02:32:09;6.35;;;3.00;;
27728;SDS011;15126;42.186;24.340;2024-02-04T02:34:35;4.63;;;2.20;;
27728;SDS011;15126;42.186;24.340;2024-02-04T02:37:14;4.25;;;2.45;;
27728;SDS011;15126;42.186;24.340;2024-02-04T02:39:45;7.07;;;2.65;;
27728;SDS011;15126;42.186;24.340;2024-02-04T02:42:19;5.57;;;2.70;;
27728;SDS011;15126;42.186;24.340;2024-02-04T02:44:47;5.63;;;2.92;;
27728;SDS011;15126;42.186;24.340;2024-02-04T02:47:13;6.25;;;3.05;;
27728;SDS011;15126;42.186;24.340;2024-02-04T02:49:40;4.75;;;3.00;;
27728;SDS011;15126;42.186;24.340;2024-02-04T02:52:05;5.28;;;2.05;;
27728;SDS011;15126;42.186;24.340;2024-02-04T02:54:31;4.15;;;2.17;;
27728;SDS011;15126;42.186;24.340;2024-02-04T02:56:56;18.13;;;6.65;;
27728;SDS011;15126;42.186;24.340;2024-02-04T02:59:22;9.95;;;3.92;;
27728;SDS011;15126;42.186;24.340;2024-02-04T03:01:47;5.32;;;2.42;;
27728;SDS011;15126;42.186;24.340;2024-02-04T03:04:13;5.80;;;3.13;;
27728;SDS011;15126;42.186;24.340;2024-02-04T03:06:40;4.22;;;2.55;;
27728;SDS011;15126;42.186;24.340;2024-02-04T03:09:06;7.05;;;3.25;;
27728;SDS011;15126;42.186;24.340;2024-02-04T03:11:31;6.07;;;2.97;;
27728;SDS011;15126;42.186;24.340;2024-02-04T03:13:57;5.00;;;2.80;;
27728;SDS011;15126;42.186;24.340;2024-02-04T03:16:22;7.78;;;3.17;;
27728;SDS011;15126;42.186;24.340;2024-02-04T03:18:48;5.35;;;2.58;;
27728;SDS011;15126;42.186;24.340;2024-02-04T03:21:13;6.50;;;3.17;;
27728;SDS011;15126;42.186;24.340;2024-02-04T03:23:43;5.82;;;2.85;;
27728;SDS011;15126;42.186;24.340;2024-02-04T03:26:09;7.63;;;3.03;;
27728;SDS011;15126;42.186;24.340;2024-02-04T03:28:36;5.90;;;3.40;;
27728;SDS011;15126;42.186;24.340;2024-02-04T03:31:01;4.32;;;2.35;;
27728;SDS011;15126;42.186;24.340;2024-02-04T03:33:27;4.93;;;2.70;;
27728;SDS011;15126;42.186;24.340;2024-02-04T03:35:53;4.43;;;2.88;;
27728;SDS011;15126;42.186;24.340;2024-02-04T03:38:18;6.07;;;2.75;;
27728;SDS011;15126;42.186;24.340;2024-02-04T03:40:44;5.78;;;3.08;;
27728;SDS011;15126;42.186;24.340;2024-02-04T03:43:10;7.38;;;3.00;;
27728;SDS011;15126;42.186;24.340;2024-02-04T03:45:35;5.45;;;2.15;;
27728;SDS011;15126;42.186;24.340;2024-02-04T03:48:01;4.07;;;2.58;;
27728;SDS011;15126;42.186;24.340;2024-02-04T03:50:29;6.22;;;3.08;;
27728;SDS011;15126;42.186;24.340;2024-02-04T03:52:55;5.43;;;2.70;;
27728;SDS011;15126;42.186;24.340;2024-02-04T03:55:20;5.57;;;2.45;;
27728;SDS011;15126;42.186;24.340;2024-02-04T03:57:45;5.25;;;2.30;;
27728;SDS011;15126;42.186;24.340;2024-02-04T04:00:11;5.97;;;3.42;;
27728;SDS011;15126;42.186;24.340;2024-02-04T04:02:37;6.57;;;2.97;;
27728;SDS011;15126;42.186;24.340;2024-02-04T04:05:02;4.88;;;2.50;;
27728;SDS011;15126;42.186;24.340;2024-02-04T04:07:28;5.32;;;2.28;;
27728;SDS011;15126;42.186;24.340;2024-02-04T04:09:53;5.18;;;2.63;;
27728;SDS011;15126;42.186;24.340;2024-02-04T04:12:19;4.13;;;2.50;;
27728;SDS011;15126;42.186;24.340;2024-02-04T04:14:44;5.53;;;2.30;;
27728;SDS011;15126;42.186;24.340;2024-02-04T04:17:10;4.10;;;2.83;;
27728;SDS011;15126;42.186;24.340;2024-02-04T04:19:35;4.60;;;2.38;;
27728;SDS011;15126;42.186;24.340;2024-02-04T04:22:02;4.70;;;2.75;;
27728;SDS011;15126;42.186;24.340;2024-02-04T04:24:28;4.97;;;2.50;;
27728;SDS011;15126;42.186;24.340;2024-02-04T04:26:53;5.07;;;2.78;;
27728;SDS011;15126;42.186;24.340;2024-02-04T04:29:19;4.82;;;3.10;;
27728;SDS011;15126;42.186;24.340;2024-02-04T04:31:45;3.58;;;2.42;;
27728;SDS011;15126;42.186;24.340;2024-02-04T04:34:11;6.45;;;2.65;;
27728;SDS011;15126;42.186;24.340;2024-02-04T04:36:36;5.55;;;2.78;;
27728;SDS011;15126;42.186;24.340;2024-02-04T04:39:02;6.25;;;2.75;;
27728;SDS011;15126;42.186;24.340;2024-02-04T04:41:27;5.97;;;2.88;;
27728;SDS011;15126;42.186;24.340;2024-02-04T04:43:53;5.63;;;2.50;;
27728;SDS011;15126;42.186;24.340;2024-02-04T04:46:19;5.07;;;3.28;;
27728;SDS011;15126;42.186;24.340;2024-02-04T04:48:44;6.22;;;2.85;;
27728;SDS011;15126;42.186;24.340;2024-02-04T04:51:13;6.05;;;3.47;;
27728;SDS011;15126;42.186;24.340;2024-02-04T04:53:38;5.25;;;2.42;;
27728;SDS011;15126;42.186;24.340;2024-02-04T04:56:04;5.55;;;3.17;;
27728;SDS011;15126;42.186;24.340;2024-02-04T05:00:55;4.88;;;2.92;;
27728;SDS011;15126;42.186;24.340;2024-02-04T05:03:21;5.50;;;3.13;;
27728;SDS011;15126;42.186;24.340;2024-02-04T05:05:46;6.10;;;3.53;;
27728;SDS011;15126;42.186;24.340;2024-02-04T05:08:13;9.55;;;3.42;;
27728;SDS011;15126;42.186;24.340;2024-02-04T05:10:39;7.20;;;4.00;;
27728;SDS011;15126;42.186;24.340;2024-02-04T05:13:05;6.22;;;3.65;;
27728;SDS011;15126;42.186;24.340;2024-02-04T05:15:30;8.82;;;3.63;;
27728;SDS011;15126;42.186;24.340;2024-02-04T05:17:56;9.27;;;3.80;;
27728;SDS011;15126;42.186;24.340;2024-02-04T05:20:21;7.00;;;3.53;;
27728;SDS011;15126;42.186;24.340;2024-02-04T05:22:46;8.10;;;4.13;;
27728;SDS011;15126;42.186;24.340;2024-02-04T05:25:12;8.68;;;4.47;;
27728;SDS011;15126;42.186;24.340;2024-02-04T05:27:39;10.85;;;3.78;;
27728;SDS011;15126;42.186;24.340;2024-02-04T05:30:04;8.57;;;3.92;;
27728;SDS011;15126;42.186;24.340;2024-02-04T05:32:30;6.15;;;4.07;;
27728;SDS011;15126;42.186;24.340;2024-02-04T05:34:56;6.95;;;3.85;;
27728;SDS011;15126;42.186;24.340;2024-02-04T05:37:21;10.18;;;4.55;;
27728;SDS011;15126;42.186;24.340;2024-02-04T05:39:47;7.10;;;3.90;;
27728;SDS011;15126;42.186;24.340;2024-02-04T05:42:12;17.10;;;8.30;;
27728;SDS011;15126;42.186;24.340;2024-02-04T05:44:38;27.77;;;12.35;;
27728;SDS011;15126;42.186;24.340;2024-02-04T05:47:04;30.98;;;13.48;;
27728;SDS011;15126;42.186;24.340;2024-02-04T05:49:29;30.85;;;14.32;;
27728;SDS011;15126;42.186;24.340;2024-02-04T05:51:55;29.98;;;12.77;;
27728;SDS011;15126;42.186;24.340;2024-02-04T05:54:20;26.38;;;12.70;;
27728;SDS011;15126;42.186;24.340;2024-02-04T05:56:46;24.17;;;11.80;;
27728;SDS011;15126;42.186;24.340;2024-02-04T05:59:11;17.08;;;8.27;;
27728;SDS011;15126;42.186;24.340;2024-02-04T06:01:37;15.23;;;7.65;;
27728;SDS011;15126;42.186;24.340;2024-02-04T06:04:05;18.25;;;8.90;;
27728;SDS011;15126;42.186;24.340;2024-02-04T06:06:31;14.48;;;6.75;;
27728;SDS011;15126;42.186;24.340;2024-02-04T06:08:56;14.20;;;6.45;;
27728;SDS011;15126;42.186;24.340;2024-02-04T06:11:21;9.48;;;4.32;;
27728;SDS011;15126;42.186;24.340;2024-02-04T06:13:49;11.07;;;5.30;;
27728;SDS011;15126;42.186;24.340;2024-02-04T06:16:15;7.45;;;4.82;;
27728;SDS011;15126;42.186;24.340;2024-02-04T06:18:40;15.52;;;6.10;;
27728;SDS011;15126;42.186;24.340;2024-02-04T06:21:06;7.35;;;4.03;;
27728;SDS011;15126;42.186;24.340;2024-02-04T06:25:58;36.38;;;15.05;;
27728;SDS011;15126;42.186;24.340;2024-02-04T06:28:23;19.58;;;8.38;;
27728;SDS011;15126;42.186;24.340;2024-02-04T06:30:49;20.40;;;8.48;;
27728;SDS011;15126;42.186;24.340;2024-02-04T06:33:15;13.75;;;6.78;;
27728;SDS011;15126;42.186;24.340;2024-02-04T06:35:40;12.13;;;6.53;;
27728;SDS011;15126;42.186;24.340;2024-02-04T06:38:06;12.93;;;7.03;;
27728;SDS011;15126;42.186;24.340;2024-02-04T06:40:31;13.68;;;6.32;;
27728;SDS011;15126;42.186;24.340;2024-02-04T06:42:57;15.35;;;7.72;;
27728;SDS011;15126;42.186;24.340;2024-02-04T06:45:22;14.05;;;7.22;;
27728;SDS011;15126;42.186;24.340;2024-02-04T06:47:48;14.18;;;6.63;;
27728;SDS011;15126;42.186;24.340;2024-02-04T06:50:13;17.98;;;9.75;;
27728;SDS011;15126;42.186;24.340;2024-02-04T06:52:42;19.75;;;10.02;;
27728;SDS011;15126;42.186;24.340;2024-02-04T06:55:08;15.50;;;7.13;;
27728;SDS011;15126;42.186;24.340;2024-02-04T06:57:34;14.50;;;7.68;;
27728;SDS011;15126;42.186;24.340;2024-02-04T07:00:00;19.85;;;8.85;;
27728;SDS011;15126;42.186;24.340;2024-02-04T07:02:26;16.73;;;8.77;;
27728;SDS011;15126;42.186;24.340;2024-02-04T07:04:52;21.02;;;10.68;;
27728;SDS011;15126;42.186;24.340;2024-02-04T07:07:18;17.13;;;7.75;;
27728;SDS011;15126;42.186;24.340;2024-02-04T07:09:43;16.52;;;7.47;;
27728;SDS011;15126;42.186;24.340;2024-02-04T07:12:09;15.82;;;7.85;;
27728;SDS011;15126;42.186;24.340;2024-02-04T07:14:38;17.00;;;8.52;;
27728;SDS011;15126;42.186;24.340;2024-02-04T07:17:03;13.55;;;6.75;;
27728;SDS011;15126;42.186;24.340;2024-02-04T07:19:29;14.15;;;8.02;;
27728;SDS011;15126;42.186;24.340;2024-02-04T07:21:57;9.90;;;5.28;;
27728;SDS011;15126;42.186;24.340;2024-02-04T07:24:22;9.82;;;5.75;;
27728;SDS011;15126;42.186;24.340;2024-02-04T07:26:48;27.17;;;11.52;;
27728;SDS011;15126;42.186;24.340;2024-02-04T07:29:14;20.08;;;9.63;;
27728;SDS011;15126;42.186;24.340;2024-02-04T07:31:39;17.52;;;8.75;;
27728;SDS011;15126;42.186;24.340;2024-02-04T07:34:05;11.48;;;7.07;;
27728;SDS011;15126;42.186;24.340;2024-02-04T07:36:31;12.35;;;6.18;;
27728;SDS011;15126;42.186;24.340;2024-02-04T07:38:56;12.93;;;6.97;;
27728;SDS011;15126;42.186;24.340;2024-02-04T07:41:24;13.88;;;7.13;;
27728;SDS011;15126;42.186;24.340;2024-02-04T07:43:54;15.43;;;7.38;;
27728;SDS011;15126;42.186;24.340;2024-02-04T07:46:19;11.07;;;5.75;;
27728;SDS011;15126;42.186;24.340;2024-02-04T07:51:10;8.75;;;4.93;;
27728;SDS011;15126;42.186;24.340;2024-02-04T07:56:01;9.70;;;5.05;;
27728;SDS011;15126;42.186;24.340;2024-02-04T07:58:29;6.88;;;3.92;;
27728;SDS011;15126;42.186;24.340;2024-02-04T08:00:54;7.60;;;4.07;;
27728;SDS011;15126;42.186;24.340;2024-02-04T08:05:48;9.95;;;4.88;;
27728;SDS011;15126;42.186;24.340;2024-02-04T08:10:40;9.27;;;5.88;;
27728;SDS011;15126;42.186;24.340;2024-02-04T08:13:08;8.27;;;4.75;;
27728;SDS011;15126;42.186;24.340;2024-02-04T08:18:02;16.60;;;8.93;;
27728;SDS011;15126;42.186;24.340;2024-02-04T08:20:28;12.32;;;6.20;;
27728;SDS011;15126;42.186;24.340;2024-02-04T08:22:54;11.90;;;6.13;;
27728;SDS011;15126;42.186;24.340;2024-02-04T08:30:11;7.05;;;4.90;;
27728;SDS011;15126;42.186;24.340;2024-02-04T08:35:05;20.38;;;10.20;;
27728;SDS011;15126;42.186;24.340;2024-02-04T08:37:31;9.90;;;5.07;;
27728;SDS011;15126;42.186;24.340;2024-02-04T08:39:58;9.07;;;5.88;;
27728;SDS011;15126;42.186;24.340;2024-02-04T08:42:24;11.90;;;5.30;;
27728;SDS011;15126;42.186;24.340;2024-02-04T08:47:17;6.28;;;3.25;;
27728;SDS011;15126;42.186;24.340;2024-02-04T08:49:44;4.90;;;2.40;;
27728;SDS011;15126;42.186;24.340;2024-02-04T08:52:09;6.40;;;3.35;;
27728;SDS011;15126;42.186;24.340;2024-02-04T08:57:00;6.95;;;3.25;;
27728;SDS011;15126;42.186;24.340;2024-02-04T09:01:53;7.85;;;4.15;;
27728;SDS011;15126;42.186;24.340;2024-02-04T09:04:26;7.13;;;3.35;;
27728;SDS011;15126;42.186;24.340;2024-02-04T09:06:54;3.65;;;2.25;;
27728;SDS011;15126;42.186;24.340;2024-02-04T09:09:20;8.30;;;2.67;;
27728;SDS011;15126;42.186;24.340;2024-02-04T09:11:45;5.45;;;2.22;;
27728;SDS011;15126;42.186;24.340;2024-02-04T09:14:11;12.50;;;4.72;;
27728;SDS011;15126;42.186;24.340;2024-02-04T09:16:38;4.95;;;2.30;;
27728;SDS011;15126;42.186;24.340;2024-02-04T09:19:04;6.15;;;2.55;;
27728;SDS011;15126;42.186;24.340;2024-02-04T09:21:30;3.80;;;2.00;;
27728;SDS011;15126;42.186;24.340;2024-02-04T09:23:55;3.92;;;2.25;;
27728;SDS011;15126;42.186;24.340;2024-02-04T09:26:22;3.85;;;1.80;;
27728;SDS011;15126;42.186;24.340;2024-02-04T09:28:48;5.07;;;1.88;;
27728;SDS011;15126;42.186;24.340;2024-02-04T09:31:14;5.20;;;2.00;;
27728;SDS011;15126;42.186;24.340;2024-02-04T09:33:40;13.40;;;6.32;;
27728;SDS011;15126;42.186;24.340;2024-02-04T09:36:05;14.55;;;6.68;;
27728;SDS011;15126;42.186;24.340;2024-02-04T09:38:31;4.53;;;1.95;;
27728;SDS011;15126;42.186;24.340;2024-02-04T09:40:56;3.55;;;1.70;;
27728;SDS011;15126;42.186;24.340;2024-02-04T09:43:25;5.32;;;1.85;;
27728;SDS011;15126;42.186;24.340;2024-02-04T09:45:51;4.90;;;1.88;;
27728;SDS011;15126;42.186;24.340;2024-02-04T09:48:18;5.60;;;2.50;;
27728;SDS011;15126;42.186;24.340;2024-02-04T09:50:45;5.97;;;1.80;;
27728;SDS011;15126;42.186;24.340;2024-02-04T09:53:11;3.25;;;1.85;;
27728;SDS011;15126;42.186;24.340;2024-02-04T09:55:39;7.57;;;3.92;;
27728;SDS011;15126;42.186;24.340;2024-02-04T09:58:06;9.55;;;5.03;;
27728;SDS011;15126;42.186;24.340;2024-02-04T10:00:35;9.23;;;4.18;;
27728;SDS011;15126;42.186;24.340;2024-02-04T10:03:03;7.13;;;3.85;;
27728;SDS011;15126;42.186;24.340;2024-02-04T10:05:29;4.70;;;2.67;;
27728;SDS011;15126;42.186;24.340;2024-02-04T10:07:54;16.40;;;9.10;;
27728;SDS011;15126;42.186;24.340;2024-02-04T10:10:20;6.10;;;2.20;;
27728;SDS011;15126;42.186;24.340;2024-02-04T10:12:46;6.55;;;3.60;;
27728;SDS011;15126;42.186;24.340;2024-02-04T10:15:14;5.22;;;2.78;;
27728;SDS011;15126;42.186;24.340;2024-02-04T10:17:50;5.03;;;1.58;;
27728;SDS011;15126;42.186;24.340;2024-02-04T10:20:18;3.72;;;1.27;;
27728;SDS011;15126;42.186;24.340;2024-02-04T10:22:50;3.63;;;1.85;;
27728;SDS011;15126;42.186;24.340;2024-02-04T10:25:19;11.85;;;1.80;;
27728;SDS011;15126;42.186;24.340;2024-02-04T10:27:47;7.25;;;2.17;;
27728;SDS011;15126;42.186;24.340;2024-02-04T10:30:13;5.05;;;2.00;;
27728;SDS011;15126;42.186;24.340;2024-02-04T10:32:39;14.10;;;2.10;;
27728;SDS011;15126;42.186;24.340;2024-02-04T10:35:07;4.47;;;1.30;;
27728;SDS011;15126;42.186;24.340;2024-02-04T10:37:35;7.07;;;1.60;;
27728;SDS011;15126;42.186;24.340;2024-02-04T10:40:00;3.25;;;1.80;;
27728;SDS011;15126;42.186;24.340;2024-02-04T10:42:26;2.30;;;1.08;;
27728;SDS011;15126;42.186;24.340;2024-02-04T10:44:55;2.78;;;1.30;;
27728;SDS011;15126;42.186;24.340;2024-02-04T10:47:30;5.05;;;1.80;;
27728;SDS011;15126;42.186;24.340;2024-02-04T10:50:03;5.70;;;1.77;;
27728;SDS011;15126;42.186;24.340;2024-02-04T10:52:34;6.07;;;2.00;;
27728;SDS011;15126;42.186;24.340;2024-02-04T10:55:11;3.65;;;1.80;;
27728;SDS011;15126;42.186;24.340;2024-02-04T10:57:38;5.60;;;1.40;;
27728;SDS011;15126;42.186;24.340;2024-02-04T11:00:05;2.58;;;1.27;;
27728;SDS011;15126;42.186;24.340;2024-02-04T11:02:34;5.93;;;1.25;;
27728;SDS011;15126;42.186;24.340;2024-02-04T11:05:03;2.38;;;1.15;;
27728;SDS011;15126;42.186;24.340;2024-02-04T11:07:31;5.10;;;1.20;;
27728;SDS011;15126;42.186;24.340;2024-02-04T11:09:58;6.43;;;1.15;;
27728;SDS011;15126;42.186;24.340;2024-02-04T11:12:24;17.42;;;3.35;;
27728;SDS011;15126;42.186;24.340;2024-02-04T11:14:51;7.18;;;1.45;;
27728;SDS011;15126;42.186;24.340;2024-02-04T11:17:36;3.25;;;1.70;;
27728;SDS011;15126;42.186;24.340;2024-02-04T11:28:01;4.75;;;1.30;;
27728;SDS011;15126;42.186;24.340;2024-02-04T11:30:27;3.85;;;1.33;;
27728;SDS011;15126;42.186;24.340;2024-02-04T11:32:59;5.25;;;2.08;;
27728;SDS011;15126;42.186;24.340;2024-02-04T11:35:25;6.70;;;2.40;;
27728;SDS011;15126;42.186;24.340;2024-02-04T11:37:53;3.65;;;1.20;;
27728;SDS011;15126;42.186;24.340;2024-02-04T11:40:20;2.13;;;0.90;;
27728;SDS011;15126;42.186;24.340;2024-02-04T11:42:46;7.30;;;2.60;;
27728;SDS011;15126;42.186;24.340;2024-02-04T11:45:12;8.07;;;2.53;;
27728;SDS011;15126;42.186;24.340;2024-02-04T11:47:39;21.48;;;9.93;;
27728;SDS011;15126;42.186;24.340;2024-02-04T11:50:10;7.90;;;2.85;;
27728;SDS011;15126;42.186;24.340;2024-02-04T11:52:38;2.50;;;1.20;;
27728;SDS011;15126;42.186;24.340;2024-02-04T11:55:05;4.78;;;2.15;;
27728;SDS011;15126;42.186;24.340;2024-02-04T11:57:32;7.22;;;1.70;;
27728;SDS011;15126;42.186;24.340;2024-02-04T11:59:58;8.88;;;2.85;;
27728;SDS011;15126;42.186;24.340;2024-02-04T12:02:24;5.25;;;1.77;;
27728;SDS011;15126;42.186;24.340;2024-02-04T12:04:49;5.35;;;2.53;;
27728;SDS011;15126;42.186;24.340;2024-02-04T12:07:17;6.10;;;2.70;;
27728;SDS011;15126;42.186;24.340;2024-02-04T12:09:42;17.17;;;6.70;;
27728;SDS011;15126;42.186;24.340;2024-02-04T12:12:09;6.07;;;2.53;;
27728;SDS011;15126;42.186;24.340;2024-02-04T12:14:34;3.90;;;1.52;;
27728;SDS011;15126;42.186;24.340;2024-02-04T12:17:11;12.50;;;1.88;;
27728;SDS011;15126;42.186;24.340;2024-02-04T12:19:39;7.95;;;2.47;;
27728;SDS011;15126;42.186;24.340;2024-02-04T12:22:04;6.00;;;2.65;;
27728;SDS011;15126;42.186;24.340;2024-02-04T12:24:35;8.57;;;3.25;;
27728;SDS011;15126;42.186;24.340;2024-02-04T12:27:02;2.75;;;1.50;;
27728;SDS011;15126;42.186;24.340;2024-02-04T12:29:28;14.60;;;6.90;;
27728;SDS011;15126;42.186;24.340;2024-02-04T12:31:57;5.35;;;1.95;;
27728;SDS011;15126;42.186;24.340;2024-02-04T12:34:24;37.20;;;17.25;;
27728;SDS011;15126;42.186;24.340;2024-02-04T12:36:56;10.77;;;3.20;;
27728;SDS011;15126;42.186;24.340;2024-02-04T12:39:23;28.45;;;10.52;;
27728;SDS011;15126;42.186;24.340;2024-02-04T12:41:52;30.85;;;10.50;;
27728;SDS011;15126;42.186;24.340;2024-02-04T12:44:18;5.18;;;1.80;;
27728;SDS011;15126;42.186;24.340;2024-02-04T12:46:44;6.82;;;3.63;;
27728;SDS011;15126;42.186;24.340;2024-02-04T12:49:16;13.10;;;5.00;;
27728;SDS011;15126;42.186;24.340;2024-02-04T12:51:45;20.98;;;8.65;;
27728;SDS011;15126;42.186;24.340;2024-02-04T12:54:11;6.78;;;3.28;;
27728;SDS011;15126;42.186;24.340;2024-02-04T12:59:09;5.55;;;1.90;;
27728;SDS011;15126;42.186;24.340;2024-02-04T13:01:36;1.75;;;1.15;;
27728;SDS011;15126;42.186;24.340;2024-02-04T13:04:02;4.30;;;1.42;;
27728;SDS011;15126;42.186;24.340;2024-02-04T13:06:31;3.72;;;1.23;;
27728;SDS011;15126;42.186;24.340;2024-02-04T13:09:02;5.05;;;1.40;;
27728;SDS011;15126;42.186;24.340;2024-02-04T13:11:33;5.88;;;1.52;;
27728;SDS011;15126;42.186;24.340;2024-02-04T13:14:01;3.42;;;1.15;;
27728;SDS011;15126;42.186;24.340;2024-02-04T13:16:26;3.33;;;1.40;;
27728;SDS011;15126;42.186;24.340;2024-02-04T13:18:52;5.53;;;2.42;;
27728;SDS011;15126;42.186;24.340;2024-02-04T13:21:18;3.63;;;1.55;;
27728;SDS011;15126;42.186;24.340;2024-02-04T13:23:47;11.80;;;2.40;;
27728;SDS011;15126;42.186;24.340;2024-02-04T13:26:13;4.93;;;1.95;;
27728;SDS011;15126;42.186;24.340;2024-02-04T13:28:39;3.10;;;1.33;;
27728;SDS011;15126;42.186;24.340;2024-02-04T13:31:04;4.93;;;1.73;;
27728;SDS011;15126;42.186;24.340;2024-02-04T13:33:30;7.45;;;3.38;;
27728;SDS011;15126;42.186;24.340;2024-02-04T13:35:58;5.68;;;1.45;;
27728;SDS011;15126;42.186;24.340;2024-02-04T13:38:23;11.82;;;2.83;;
27728;SDS011;15126;42.186;24.340;2024-02-04T13:40:49;6.47;;;2.28;;
27728;SDS011;15126;42.186;24.340;2024-02-04T13:43:14;2.75;;;1.13;;
27728;SDS011;15126;42.186;24.340;2024-02-04T13:45:40;5.07;;;1.50;;
27728;SDS011;15126;42.186;24.340;2024-02-04T13:48:07;5.47;;;1.67;;
27728;SDS011;15126;42.186;24.340;2024-02-04T13:50:33;4.32;;;1.45;;
27728;SDS011;15126;42.186;24.340;2024-02-04T13:53:00;11.63;;;4.15;;
27728;SDS011;15126;42.186;24.340;2024-02-04T13:55:26;5.05;;;1.42;;
27728;SDS011;15126;42.186;24.340;2024-02-04T13:57:55;2.90;;;1.40;;
27728;SDS011;15126;42.186;24.340;2024-02-04T14:00:20;3.83;;;1.38;;
27728;SDS011;15126;42.186;24.340;2024-02-04T14:02:49;58.55;;;17.17;;
27728;SDS011;15126;42.186;24.340;2024-02-04T14:05:14;4.50;;;2.25;;
27728;SDS011;15126;42.186;24.340;2024-02-04T14:07:43;4.47;;;2.10;;
27728;SDS011;15126;42.186;24.340;2024-02-04T14:10:08;7.63;;;3.60;;
27728;SDS011;15126;42.186;24.340;2024-02-04T14:12:36;6.00;;;1.95;;
27728;SDS011;15126;42.186;24.340;2024-02-04T14:15:03;5.35;;;2.70;;
27728;SDS011;15126;42.186;24.340;2024-02-04T14:17:32;2.55;;;1.58;;
27728;SDS011;15126;42.186;24.340;2024-02-04T14:20:00;6.03;;;1.90;;
27728;SDS011;15126;42.186;24.340;2024-02-04T14:22:26;1.88;;;1.20;;
27728;SDS011;15126;42.186;24.340;2024-02-04T14:24:53;3.30;;;1.80;;
27728;SDS011;15126;42.186;24.340;2024-02-04T14:27:18;5.72;;;3.10;;
27728;SDS011;15126;42.186;24.340;2024-02-04T14:29:48;3.70;;;1.58;;
27728;SDS011;15126;42.186;24.340;2024-02-04T14:32:16;2.60;;;1.30;;
27728;SDS011;15126;42.186;24.340;2024-02-04T14:34:43;13.40;;;6.65;;
27728;SDS011;15126;42.186;24.340;2024-02-04T14:37:09;7.20;;;2.10;;
27728;SDS011;15126;42.186;24.340;2024-02-04T14:39:37;3.65;;;1.95;;
27728;SDS011;15126;42.186;24.340;2024-02-04T14:42:03;8.70;;;3.03;;
27728;SDS011;15126;42.186;24.340;2024-02-04T14:44:29;4.18;;;1.65;;
27728;SDS011;15126;42.186;24.340;2024-02-04T14:46:57;3.70;;;1.85;;
27728;SDS011;15126;42.186;24.340;2024-02-04T14:49:25;5.45;;;2.50;;
27728;SDS011;15126;42.186;24.340;2024-02-04T14:51:52;3.78;;;1.98;;
27728;SDS011;15126;42.186;24.340;2024-02-04T14:54:17;4.60;;;1.10;;
27728;SDS011;15126;42.186;24.340;2024-02-04T14:56:43;4.00;;;1.70;;
27728;SDS011;15126;42.186;24.340;2024-02-04T14:59:13;3.70;;;1.60;;
27728;SDS011;15126;42.186;24.340;2024-02-04T15:01:40;2.75;;;1.45;;
27728;SDS011;15126;42.186;24.340;2024-02-04T15:04:11;4.95;;;2.35;;
27728;SDS011;15126;42.186;24.340;2024-02-04T15:06:39;5.05;;;2.20;;
27728;SDS011;15126;42.186;24.340;2024-02-04T15:09:07;4.32;;;2.20;;
27728;SDS011;15126;42.186;24.340;2024-02-04T15:11:35;3.63;;;1.90;;
27728;SDS011;15126;42.186;24.340;2024-02-04T15:14:01;2.53;;;1.15;;